createdAt,value
2022-08-30T00:02:26.111Z,8.85
2022-08-30T00:04:55.251Z,14.60
2022-08-30T00:07:23.669Z,11.70
2022-08-30T00:09:53.357Z,10.73
2022-08-30T00:12:22.109Z,12.70
2022-08-30T00:14:50.781Z,11.40
2022-08-30T00:17:19.388Z,10.70
2022-08-30T00:19:47.664Z,14.52
2022-08-30T00:22:15.893Z,13.10
2022-08-30T00:24:44.346Z,15.63
2022-08-30T00:27:14.095Z,10.52
2022-08-30T00:29:42.307Z,11.18
2022-08-30T00:32:11.476Z,17.10
2022-08-30T00:34:39.864Z,12.68
2022-08-30T00:37:08.188Z,16.13
2022-08-30T00:39:36.410Z,13.07
2022-08-30T00:42:05.103Z,10.30
2022-08-30T00:44:35.177Z,9.52
2022-08-30T00:47:03.363Z,12.63
2022-08-30T00:49:32.010Z,13.32
2022-08-30T00:52:00.917Z,16.02
2022-08-30T00:54:30.007Z,11.80
2022-08-30T00:56:58.952Z,19.17
2022-08-30T00:59:29.056Z,19.73
2022-08-30T01:01:59.269Z,11.60
2022-08-30T01:04:29.487Z,15.85
2022-08-30T01:06:58.483Z,15.48
2022-08-30T01:09:26.668Z,14.38
2022-08-30T01:11:54.991Z,11.48
2022-08-30T01:14:25.910Z,15.60
2022-08-30T01:16:58.852Z,10.30
2022-08-30T01:19:37.571Z,22.48
2022-08-30T01:22:12.815Z,18.08
2022-08-30T01:24:42.632Z,15.65
2022-08-30T01:27:10.806Z,13.35
2022-08-30T01:29:39.115Z,12.25
2022-08-30T01:32:07.888Z,13.70
2022-08-30T01:34:36.044Z,14.48
2022-08-30T01:37:04.219Z,12.20
2022-08-30T01:39:33.053Z,10.85
2022-08-30T01:42:03.783Z,17.45
2022-08-30T01:44:32.008Z,12.55
2022-08-30T01:47:00.202Z,11.25
2022-08-30T01:49:28.439Z,8.80
2022-08-30T01:52:00.835Z,12.68
2022-08-30T01:54:36.941Z,13.20
2022-08-30T01:57:13.459Z,13.52
2022-08-30T01:59:47.540Z,12.25
2022-08-30T02:02:16.832Z,13.82
2022-08-30T02:04:45.566Z,13.70
2022-08-30T02:07:13.814Z,13.38
2022-08-30T02:09:46.127Z,14.63
2022-08-30T02:12:16.412Z,11.73
2022-08-30T02:14:44.901Z,14.40
2022-08-30T02:17:15.592Z,17.10
2022-08-30T02:19:44.353Z,13.65
2022-08-30T02:22:13.115Z,13.25
2022-08-30T02:24:41.703Z,19.58
2022-08-30T02:27:09.921Z,10.90
2022-08-30T02:29:39.844Z,10.65
2022-08-30T02:32:08.491Z,15.75
2022-08-30T02:34:37.127Z,10.10
2022-08-30T02:37:06.156Z,13.30
2022-08-30T02:39:34.404Z,11.65
2022-08-30T02:42:03.404Z,13.60
2022-08-30T02:44:31.632Z,15.13
2022-08-30T02:47:01.281Z,14.20
2022-08-30T02:49:33.639Z,10.60
2022-08-30T02:52:03.274Z,18.75
2022-08-30T02:54:33.455Z,13.43
2022-08-30T02:57:04.796Z,13.38
2022-08-30T02:59:33.764Z,12.27
2022-08-30T03:02:03.549Z,11.93
2022-08-30T03:04:31.885Z,11.48
2022-08-30T03:07:00.195Z,10.35
2022-08-30T03:09:28.361Z,12.23
2022-08-30T03:11:56.572Z,9.13
2022-08-30T03:14:24.792Z,13.52
2022-08-30T03:16:53.282Z,9.10
2022-08-30T03:19:23.473Z,10.35
2022-08-30T03:21:51.669Z,15.02
2022-08-30T03:24:20.317Z,25.33
2022-08-30T03:26:48.570Z,13.77
2022-08-30T03:29:16.900Z,13.45
2022-08-30T03:31:52.829Z,13.23
2022-08-30T03:34:24.072Z,18.20
2022-08-30T03:36:53.132Z,14.95
2022-08-30T03:39:23.087Z,17.65
2022-08-30T03:41:51.973Z,13.70
2022-08-30T03:44:20.521Z,9.70
2022-08-30T03:46:50.588Z,10.40
2022-08-30T03:49:19.471Z,11.70
2022-08-30T03:51:49.624Z,13.15
2022-08-30T03:54:18.071Z,11.75
2022-08-30T03:56:46.358Z,11.55
2022-08-30T03:59:14.626Z,10.65
2022-08-30T04:01:43.180Z,12.73
2022-08-30T04:04:12.144Z,14.82
2022-08-30T04:06:40.543Z,17.40
2022-08-30T04:09:10.249Z,14.15
2022-08-30T04:11:38.636Z,12.95
2022-08-30T04:14:06.882Z,12.25
2022-08-30T04:16:35.299Z,10.68
2022-08-30T04:19:03.569Z,11.05
2022-08-30T04:21:31.963Z,11.13
2022-08-30T04:24:00.270Z,13.77
2022-08-30T04:26:30.308Z,16.50
2022-08-30T04:28:59.422Z,15.77
2022-08-30T04:31:28.213Z,11.20
2022-08-30T04:33:56.559Z,11.05
2022-08-30T04:36:24.999Z,12.60
2022-08-30T04:38:53.250Z,13.55
2022-08-30T04:41:24.485Z,11.90
2022-08-30T04:43:54.189Z,17.02
2022-08-30T04:46:22.610Z,13.73
2022-08-30T04:48:50.877Z,11.30
2022-08-30T04:51:19.714Z,11.40
2022-08-30T04:53:48.117Z,10.35
2022-08-30T04:56:18.999Z,11.13
2022-08-30T04:58:48.255Z,12.30
2022-08-30T05:01:20.558Z,14.73
2022-08-30T05:03:53.148Z,23.60
2022-08-30T05:06:22.538Z,15.02
2022-08-30T05:08:51.892Z,10.85
2022-08-30T05:11:20.156Z,11.25
2022-08-30T05:13:49.847Z,16.40
2022-08-30T05:16:19.975Z,14.25
2022-08-30T05:18:50.232Z,16.60
2022-08-30T05:21:21.827Z,13.52
2022-08-30T05:23:50.834Z,14.23
2022-08-30T05:26:21.829Z,18.45
2022-08-30T05:28:50.649Z,24.17
2022-08-30T05:31:22.705Z,18.08
2022-08-30T05:33:52.591Z,20.88
2022-08-30T05:36:23.749Z,14.80
2022-08-30T05:38:52.577Z,19.35
2022-08-30T05:41:21.089Z,16.83
2022-08-30T05:43:49.655Z,16.70
2022-08-30T05:46:21.053Z,14.77
2022-08-30T05:48:50.185Z,17.25
2022-08-30T05:51:21.259Z,17.42
2022-08-30T05:53:50.509Z,21.60
2022-08-30T05:56:21.408Z,21.27
2022-08-30T05:58:53.066Z,32.97
2022-08-30T06:01:25.037Z,149.80
2022-08-30T06:03:54.652Z,197.70
2022-08-30T06:06:23.572Z,136.77
2022-08-30T06:08:52.383Z,110.87
2022-08-30T06:11:22.559Z,62.40
2022-08-30T06:13:52.545Z,18.07
2022-08-30T06:16:24.900Z,12.23
2022-08-30T06:18:54.463Z,6.67
2022-08-30T06:21:25.272Z,9.60
2022-08-30T06:23:54.411Z,4.97
2022-08-30T06:26:23.128Z,4.83
2022-08-30T06:28:51.851Z,3.43
2022-08-30T06:31:22.147Z,4.00
2022-08-30T06:33:52.583Z,3.50
2022-08-30T06:36:23.983Z,3.60
2022-08-30T06:38:53.907Z,4.03
2022-08-30T06:41:24.430Z,3.87
2022-08-30T06:43:52.772Z,5.47
2022-08-30T06:46:23.121Z,4.70
2022-08-30T06:48:53.435Z,8.60
2022-08-30T06:51:26.585Z,4.07
2022-08-30T06:53:55.803Z,5.10
2022-08-30T06:56:27.576Z,3.50
2022-08-30T06:58:56.504Z,6.00
2022-08-30T07:01:26.642Z,3.20
2022-08-30T07:03:56.828Z,4.07
2022-08-30T07:06:26.375Z,3.40
2022-08-30T07:08:56.508Z,4.83
2022-08-30T07:11:30.295Z,3.97
2022-08-30T07:13:59.348Z,3.30
2022-08-30T07:16:28.365Z,5.57
2022-08-30T07:18:58.813Z,8.47
2022-08-30T07:21:29.314Z,5.73
2022-08-30T07:23:59.467Z,6.00
2022-08-30T07:26:30.193Z,3.40
2022-08-30T07:28:59.867Z,7.83
2022-08-30T07:31:28.116Z,2.10
2022-08-30T07:33:58.077Z,8.30
2022-08-30T07:36:26.536Z,3.83
2022-08-30T07:38:54.941Z,5.10
2022-08-30T07:41:26.009Z,6.77
2022-08-30T07:43:54.939Z,2.50
2022-08-30T07:46:23.527Z,3.17
2022-08-30T07:48:54.296Z,4.07
2022-08-30T07:51:26.387Z,5.53
2022-08-30T07:53:55.312Z,4.43
2022-08-30T07:56:23.948Z,7.90
2022-08-30T07:58:52.643Z,3.23
2022-08-30T08:01:22.381Z,3.47
2022-08-30T08:03:51.320Z,4.67
2022-08-30T08:06:21.670Z,2.90
2022-08-30T08:08:51.507Z,3.70
2022-08-30T08:11:23.808Z,3.70
2022-08-30T08:13:53.253Z,6.10
2022-08-30T08:16:24.222Z,2.50
2022-08-30T08:18:52.591Z,3.40
2022-08-30T08:21:21.191Z,3.57
2022-08-30T08:23:51.463Z,6.47
2022-08-30T08:26:19.664Z,3.87
2022-08-30T08:28:48.645Z,4.90
2022-08-30T08:31:17.647Z,4.27
2022-08-30T08:33:45.946Z,4.10
2022-08-30T08:36:14.184Z,3.30
2022-08-30T08:38:42.774Z,4.70
2022-08-30T08:41:22.548Z,3.50
2022-08-30T08:43:50.995Z,2.30
2022-08-30T08:46:27.111Z,2.30
2022-08-30T08:49:00.508Z,2.60
2022-08-30T08:51:51.468Z,3.57
2022-08-30T08:54:26.320Z,3.03
2022-08-30T08:56:56.223Z,4.13
2022-08-30T08:59:24.470Z,2.57
2022-08-30T09:01:52.622Z,2.70
2022-08-30T09:04:33.196Z,2.20
2022-08-30T09:07:05.097Z,3.20
2022-08-30T09:09:36.848Z,5.47
2022-08-30T09:12:08.890Z,2.13
2022-08-30T09:14:44.217Z,3.23
2022-08-30T09:17:16.632Z,3.17
2022-08-30T09:19:47.107Z,2.87
2022-08-30T09:22:27.788Z,2.53
2022-08-30T09:25:01.473Z,3.27
2022-08-30T09:27:34.136Z,2.93
2022-08-30T09:30:07.054Z,3.00
2022-08-30T09:32:44.769Z,4.87
2022-08-30T09:35:19.279Z,4.03
2022-08-30T09:37:54.088Z,2.53
2022-08-30T09:40:39.403Z,3.30
2022-08-30T09:43:13.352Z,2.70
2022-08-30T09:45:44.229Z,5.53
2022-08-30T09:48:31.409Z,3.20
2022-08-30T09:51:37.050Z,3.33
2022-08-30T09:54:18.297Z,2.20
2022-08-30T09:56:57.335Z,4.27
2022-08-30T09:59:41.117Z,2.40
2022-08-30T10:02:32.968Z,2.87
2022-08-30T10:05:24.006Z,3.10
2022-08-30T10:08:03.026Z,2.80
2022-08-30T10:10:38.164Z,5.37
2022-08-30T10:13:25.792Z,3.30
2022-08-30T10:16:03.595Z,5.10
2022-08-30T10:18:37.531Z,5.23
2022-08-30T10:21:15.619Z,2.60
2022-08-30T10:23:51.706Z,4.40
2022-08-30T10:26:30.043Z,2.80
2022-08-30T10:29:02.554Z,4.30
2022-08-30T10:31:38.615Z,1.90
2022-08-30T10:34:11.156Z,8.03
2022-08-30T10:36:44.074Z,2.97
2022-08-30T10:47:03.183Z,5.00
2022-08-30T10:49:36.516Z,2.77
2022-08-30T12:11:54.405Z,38.90
2022-08-30T12:14:48.856Z,3.73
2022-08-30T12:17:48.420Z,4.85
2022-08-30T12:20:27.099Z,3.47
2022-08-30T12:22:57.546Z,3.23
2022-08-30T12:25:31.565Z,3.93
2022-08-30T12:28:15.255Z,4.17
2022-08-30T12:30:46.906Z,3.73
2022-08-30T12:33:29.245Z,3.40
2022-08-30T12:35:59.731Z,3.50
2022-08-30T12:38:31.096Z,4.17
2022-08-30T12:41:05.588Z,8.00
2022-08-30T12:43:40.209Z,4.73
2022-08-30T12:46:15.180Z,3.70
2022-08-30T12:48:44.969Z,5.03
2022-08-30T12:51:29.379Z,4.33
2022-08-30T12:54:09.131Z,5.60
2022-08-30T12:59:59.429Z,2.27
2022-08-30T13:02:45.205Z,4.00
2022-08-30T13:05:34.813Z,2.40
2022-08-30T13:08:16.608Z,2.90
2022-08-30T13:11:03.274Z,2.73
2022-08-30T13:13:44.267Z,2.73
2022-08-30T13:16:29.557Z,2.97
2022-08-30T13:19:25.936Z,3.30
2022-08-30T13:21:56.516Z,2.43
2022-08-30T13:24:26.725Z,2.90
2022-08-30T13:26:57.703Z,3.40
2022-08-30T13:29:28.174Z,6.83
2022-08-30T13:31:57.704Z,2.90
2022-08-30T13:34:26.536Z,3.57
2022-08-30T13:36:56.833Z,3.97
2022-08-30T13:39:25.764Z,3.63
2022-08-30T13:42:31.211Z,3.63
2022-08-30T13:44:44.725Z,4.70
2022-08-30T13:47:33.063Z,7.23
2022-08-30T13:50:03.000Z,3.67
2022-08-30T13:52:31.316Z,3.50
2022-08-30T13:54:59.869Z,3.73
2022-08-30T14:00:22.400Z,3.43
2022-08-30T14:02:54.645Z,6.70
2022-08-30T14:05:47.589Z,3.10
2022-08-30T14:11:04.077Z,3.60
2022-08-30T14:13:34.923Z,4.70
2022-08-30T14:18:54.599Z,3.03
2022-08-30T14:21:24.436Z,2.83
2022-08-30T14:23:53.388Z,4.13
2022-08-30T14:26:32.821Z,2.83
2022-08-30T14:29:03.428Z,3.23
2022-08-30T14:31:32.874Z,2.97
2022-08-30T14:34:03.293Z,3.83
2022-08-30T14:36:32.972Z,3.37
2022-08-30T14:39:01.908Z,3.70
2022-08-30T14:41:30.587Z,3.30
2022-08-30T14:44:02.310Z,3.10
2022-08-30T14:46:31.466Z,2.57
2022-08-30T14:48:59.712Z,2.37
2022-08-30T14:51:27.921Z,5.23
2022-08-30T14:53:57.057Z,2.90
2022-08-30T14:56:25.397Z,3.43
2022-08-30T14:59:00.340Z,2.80
2022-08-30T15:01:30.912Z,4.00
2022-08-30T15:03:59.907Z,3.47
2022-08-30T15:06:28.899Z,2.93
2022-08-30T15:08:57.663Z,2.30
2022-08-30T15:11:27.312Z,4.07
2022-08-30T15:13:57.956Z,3.57
2022-08-30T15:16:28.659Z,3.57
2022-08-30T15:18:59.466Z,2.90
2022-08-30T15:21:30.749Z,2.53
2022-08-30T15:23:59.643Z,4.27
2022-08-30T15:26:29.567Z,2.50
2022-08-30T15:28:58.338Z,2.90
2022-08-30T15:31:29.154Z,3.37
2022-08-30T15:33:59.821Z,4.33
2022-08-30T15:36:30.418Z,2.97
2022-08-30T15:39:00.059Z,2.70
2022-08-30T15:41:29.620Z,2.77
2022-08-30T15:43:58.898Z,3.60
2022-08-30T15:46:32.092Z,2.63
2022-08-30T15:49:04.628Z,3.10
2022-08-30T15:51:41.221Z,3.33
2022-08-30T15:54:11.626Z,8.63
2022-08-30T15:56:41.866Z,3.50
2022-08-30T15:59:10.846Z,2.87
2022-08-30T16:01:39.326Z,3.00
2022-08-30T16:04:09.028Z,3.47
2022-08-30T16:06:39.824Z,4.70
2022-08-30T16:09:11.556Z,2.63
2022-08-30T16:11:39.940Z,2.73
2022-08-30T16:14:08.840Z,3.50
2022-08-30T16:16:39.927Z,2.47
2022-08-30T16:19:11.104Z,2.70
2022-08-30T16:21:41.662Z,5.87
2022-08-30T16:24:13.632Z,2.80
2022-08-30T16:26:42.889Z,3.30
2022-08-30T16:29:12.490Z,2.47
2022-08-30T16:31:43.599Z,2.83
2022-08-30T16:34:14.485Z,3.30
2022-08-30T16:36:42.820Z,6.37
2022-08-30T16:39:13.593Z,4.93
2022-08-30T16:41:42.503Z,3.50
2022-08-30T16:44:12.841Z,3.57
2022-08-30T16:46:42.737Z,3.27
2022-08-30T16:49:13.496Z,4.90
2022-08-30T16:51:41.939Z,3.10
2022-08-30T16:54:10.244Z,6.80
2022-08-30T16:56:39.119Z,3.13
2022-08-30T16:59:11.200Z,5.20
2022-08-30T17:01:42.409Z,6.43
2022-08-30T17:04:11.727Z,5.97
2022-08-30T17:06:45.515Z,7.83
2022-08-30T17:09:15.120Z,4.10
2022-08-30T17:11:43.802Z,4.80
2022-08-30T17:14:12.066Z,4.87
2022-08-30T17:16:41.343Z,9.20
2022-08-30T17:19:11.733Z,4.97
2022-08-30T17:21:39.975Z,3.97
2022-08-30T17:24:09.739Z,5.30
2022-08-30T17:26:40.081Z,8.63
2022-08-30T17:29:08.697Z,6.43
2022-08-30T17:31:37.714Z,5.07
2022-08-30T17:34:06.888Z,4.47
2022-08-30T17:36:37.038Z,5.03
2022-08-30T17:39:11.042Z,3.90
2022-08-30T17:41:45.134Z,3.97
2022-08-30T17:44:14.496Z,4.83
2022-08-30T17:46:42.989Z,4.77
2022-08-30T17:49:11.801Z,6.00
2022-08-30T17:51:42.945Z,6.30
2022-08-30T17:54:13.041Z,9.97
2022-08-30T17:56:43.151Z,6.83
2022-08-30T17:59:12.890Z,5.67
2022-08-30T18:01:42.874Z,4.60
2022-08-30T18:04:12.082Z,4.97
2022-08-30T18:06:40.856Z,5.05
2022-08-30T18:09:11.871Z,8.40
2022-08-30T18:11:42.483Z,7.60
2022-08-30T18:14:12.885Z,4.40
2022-08-30T18:16:53.115Z,5.78
2022-08-30T18:19:23.341Z,10.75
2022-08-30T18:21:52.159Z,8.50
2022-08-30T18:24:20.525Z,7.33
2022-08-30T18:26:50.486Z,6.13
2022-08-30T18:29:30.141Z,6.28
2022-08-30T18:32:09.070Z,10.10
2022-08-30T18:34:37.625Z,5.35
2022-08-30T18:37:06.409Z,8.00
2022-08-30T18:39:39.999Z,5.82
2022-08-30T18:42:11.281Z,5.47
2022-08-30T18:44:40.266Z,6.93
2022-08-30T18:47:12.127Z,6.15
2022-08-30T18:49:40.390Z,5.13
2022-08-30T18:52:13.417Z,17.45
2022-08-30T18:54:49.748Z,10.43
2022-08-30T18:57:23.219Z,14.20
2022-08-30T18:59:51.579Z,7.13
2022-08-30T19:02:20.041Z,6.40
2022-08-30T19:04:49.346Z,4.57
2022-08-30T19:07:19.957Z,6.93
2022-08-30T19:09:49.095Z,5.68
2022-08-30T19:12:19.792Z,10.75
2022-08-30T19:14:50.732Z,6.47
2022-08-30T19:17:19.810Z,9.52
2022-08-30T19:19:49.125Z,15.82
2022-08-30T19:22:21.894Z,49.38
2022-08-30T19:24:51.310Z,60.80
2022-08-30T19:27:37.392Z,35.38
2022-08-30T19:30:11.315Z,22.55
2022-08-30T19:32:40.074Z,14.00
2022-08-30T19:35:09.812Z,12.50
2022-08-30T19:37:38.968Z,19.23
2022-08-30T19:40:09.920Z,11.30
2022-08-30T19:42:45.933Z,9.80
2022-08-30T19:45:18.943Z,7.30
2022-08-30T19:47:50.366Z,8.20
2022-08-30T19:50:20.021Z,13.75
2022-08-30T19:52:54.095Z,11.65
2022-08-30T19:55:29.899Z,13.63
2022-08-30T19:58:00.068Z,11.63
2022-08-30T20:00:31.260Z,9.57
2022-08-30T20:03:01.590Z,7.95
2022-08-30T20:05:30.582Z,9.02
2022-08-30T20:07:59.062Z,9.23
2022-08-30T20:10:27.483Z,9.50
2022-08-30T20:12:55.940Z,8.07
2022-08-30T20:15:25.787Z,9.27
2022-08-30T20:18:06.386Z,8.88
2022-08-30T20:20:48.065Z,10.25
2022-08-30T20:23:21.613Z,9.18
2022-08-30T20:25:52.237Z,6.63
2022-08-30T20:28:21.738Z,10.60
2022-08-30T20:30:50.762Z,5.95
2022-08-30T20:33:21.636Z,5.53
2022-08-30T20:35:50.059Z,6.00
2022-08-30T20:38:21.798Z,5.05
2022-08-30T20:40:52.231Z,4.63
2022-08-30T20:43:21.992Z,7.60
2022-08-30T20:45:50.281Z,3.65
2022-08-30T20:48:20.606Z,6.05
2022-08-30T20:50:48.799Z,3.85
2022-08-30T20:53:17.693Z,6.55
2022-08-30T20:55:48.394Z,3.05
2022-08-30T20:58:18.716Z,3.95
2022-08-30T21:00:51.252Z,4.60
2022-08-30T21:03:27.596Z,6.35
2022-08-30T21:05:57.241Z,8.95
2022-08-30T21:08:25.530Z,3.08
2022-08-30T21:10:54.596Z,2.90
2022-08-30T21:13:22.773Z,3.15
2022-08-30T21:15:53.137Z,4.07
2022-08-30T21:18:28.487Z,3.45
2022-08-30T21:20:57.372Z,3.28
2022-08-30T21:23:25.600Z,3.10
2022-08-30T21:25:53.891Z,3.30
2022-08-30T21:28:22.535Z,3.40
2022-08-30T21:30:50.852Z,3.40
2022-08-30T21:33:19.276Z,3.30
2022-08-30T21:36:06.268Z,5.45
2022-08-30T21:38:34.875Z,3.00
2022-08-30T21:41:03.058Z,6.38
2022-08-30T21:43:31.329Z,2.97
2022-08-30T21:46:05.681Z,4.40
2022-08-30T21:48:34.322Z,2.95
2022-08-30T21:51:09.670Z,5.50
2022-08-30T21:53:38.451Z,6.68
2022-08-30T21:56:13.073Z,3.25
2022-08-30T21:58:44.689Z,2.20
2022-08-30T22:01:17.417Z,3.10
2022-08-30T22:03:46.740Z,2.63
2022-08-30T22:06:17.110Z,2.92
2022-08-30T22:08:47.611Z,2.60
2022-08-30T22:11:21.855Z,2.58
2022-08-30T22:13:51.804Z,9.88
2022-08-30T22:16:21.950Z,2.78
2022-08-30T22:18:50.887Z,2.85
2022-08-30T22:21:24.375Z,5.35
2022-08-30T22:23:52.902Z,4.13
2022-08-30T22:26:22.728Z,5.30
2022-08-30T22:28:51.811Z,3.92
2022-08-30T22:31:21.473Z,3.42
2022-08-30T22:33:49.908Z,5.03
2022-08-30T22:36:21.837Z,2.55
2022-08-30T22:38:53.183Z,3.45
2022-08-30T22:41:25.445Z,5.05
2022-08-30T22:43:54.313Z,7.75
2022-08-30T22:46:33.759Z,2.47
2022-08-30T22:49:02.975Z,2.67
2022-08-30T22:51:33.057Z,2.72
2022-08-30T22:54:02.012Z,5.32
2022-08-30T22:56:31.262Z,2.63
2022-08-30T22:58:59.516Z,4.55
2022-08-30T23:01:30.865Z,3.30
2022-08-30T23:04:01.175Z,4.55
2022-08-30T23:06:30.558Z,2.88
2022-08-30T23:09:00.770Z,3.38
2022-08-30T23:11:30.605Z,2.95
2022-08-30T23:14:02.136Z,2.90
2022-08-30T23:16:30.685Z,3.53
2022-08-30T23:18:59.318Z,6.10
2022-08-30T23:21:30.261Z,3.50
2022-08-30T23:24:17.755Z,3.53
2022-08-30T23:27:04.545Z,3.40
2022-08-30T23:29:50.546Z,5.35
2022-08-30T23:32:36.262Z,2.92
2022-08-30T23:35:25.384Z,6.57
2022-08-30T23:38:15.119Z,3.80
2022-08-30T23:41:02.031Z,3.65
2022-08-30T23:43:47.355Z,2.70
2022-08-30T23:46:33.143Z,3.25
2022-08-30T23:49:18.779Z,3.15
2022-08-30T23:52:04.452Z,2.63
2022-08-30T23:54:50.207Z,2.70
2022-08-30T23:57:36.999Z,3.60
